createdAt,value
2019-05-21T00:01:37.050Z,82.48
2019-05-21T00:04:07.081Z,81.42
2019-05-21T00:06:37.080Z,80.91
2019-05-21T00:09:07.164Z,81.38
2019-05-21T00:11:37.251Z,81.21
2019-05-21T00:14:07.248Z,80.97
2019-05-21T00:16:37.317Z,80.99
2019-05-21T00:19:07.414Z,80.93
2019-05-21T00:21:37.418Z,81.47
2019-05-21T00:24:07.492Z,81.49
2019-05-21T00:26:37.609Z,82.64
2019-05-21T00:29:43.783Z,82.46
2019-05-21T00:32:50.151Z,82.25
2019-05-21T00:35:56.669Z,81.93
2019-05-21T00:39:03.167Z,82.55
2019-05-21T00:42:01.741Z,83.57
2019-05-21T00:44:36.690Z,83.00
2019-05-21T00:47:09.117Z,82.37
2019-05-21T00:49:39.367Z,82.02
2019-05-21T00:52:09.740Z,83.05
2019-05-21T00:54:39.942Z,82.63
2019-05-21T00:57:09.995Z,82.66
2019-05-21T00:59:39.985Z,82.04
2019-05-21T01:02:10.119Z,82.70
2019-05-21T01:04:40.102Z,82.32
2019-05-21T01:07:10.103Z,82.26
2019-05-21T01:09:41.512Z,82.27
2019-05-21T01:12:11.525Z,81.91
2019-05-21T01:14:41.593Z,81.88
2019-05-21T01:17:11.787Z,82.54
2019-05-21T01:19:41.792Z,82.37
2019-05-21T01:22:11.871Z,82.41
2019-05-21T01:24:41.904Z,82.52
2019-05-21T01:27:11.910Z,82.44
2019-05-21T01:29:41.907Z,82.49
2019-05-21T01:32:11.942Z,82.01
2019-05-21T01:34:41.937Z,81.82
2019-05-21T01:37:11.998Z,81.82
2019-05-21T01:39:41.986Z,81.51
2019-05-21T01:42:11.989Z,81.25
2019-05-21T01:44:41.989Z,81.33
2019-05-21T01:47:11.990Z,81.03
2019-05-21T01:49:42.057Z,81.54
2019-05-21T01:52:12.145Z,81.61
2019-05-21T01:54:42.102Z,81.33
2019-05-21T01:57:12.102Z,81.89
2019-05-21T01:59:42.110Z,82.57
2019-05-21T02:02:12.115Z,82.66
2019-05-21T02:04:42.140Z,82.57
2019-05-21T02:07:12.133Z,82.03
2019-05-21T02:10:00.233Z,81.97
2019-05-21T02:12:30.239Z,82.24
2019-05-21T02:15:00.235Z,82.76
2019-05-21T02:17:30.246Z,82.65
2019-05-21T02:20:00.314Z,82.06
2019-05-21T02:22:30.346Z,82.23
2019-05-21T02:25:01.319Z,82.23
2019-05-21T02:27:31.448Z,82.00
2019-05-21T02:30:03.172Z,82.50
2019-05-21T02:32:33.613Z,83.32
2019-05-21T02:35:04.355Z,83.54
2019-05-21T02:37:34.511Z,82.54
2019-05-21T02:40:05.818Z,82.92
2019-05-21T02:42:36.158Z,82.11
2019-05-21T02:45:08.009Z,82.00
2019-05-21T02:47:38.015Z,82.29
2019-05-21T02:50:08.716Z,82.32
2019-05-21T02:52:38.724Z,82.94
2019-05-21T02:55:09.440Z,83.19
2019-05-21T02:57:41.108Z,84.09
2019-05-21T03:00:38.662Z,84.31
2019-05-21T03:03:08.447Z,83.33
2019-05-21T03:05:38.536Z,83.64
2019-05-21T03:23:22.566Z,82.55
2019-05-21T03:25:52.569Z,83.49
2019-05-21T03:28:22.606Z,82.93
2019-05-21T03:30:52.603Z,82.77
2019-05-21T03:33:23.811Z,82.99
2019-05-21T03:35:53.830Z,83.35
2019-05-21T03:38:23.862Z,83.24
2019-05-21T03:40:53.882Z,83.89
2019-05-21T03:43:23.916Z,83.43
2019-05-21T03:45:54.026Z,82.95
2019-05-21T03:48:24.119Z,83.57
2019-05-21T03:50:54.399Z,84.14
2019-05-21T03:53:24.429Z,84.18
2019-05-21T03:55:54.424Z,84.59
2019-05-21T03:58:24.502Z,85.52
2019-05-21T04:00:55.595Z,84.45
2019-05-21T04:03:25.593Z,84.47
2019-05-21T04:05:55.615Z,85.23
2019-05-21T04:08:25.647Z,85.02
2019-05-21T04:10:55.638Z,84.84
2019-05-21T04:13:25.928Z,85.36
2019-05-21T04:16:00.315Z,85.08
2019-05-21T04:18:31.973Z,86.91
2019-05-21T04:21:02.013Z,85.08
2019-05-21T04:23:32.055Z,87.10
2019-05-21T04:26:02.062Z,84.77
2019-05-21T04:28:32.082Z,87.52
2019-05-21T04:31:02.121Z,86.75
2019-05-21T04:33:32.133Z,88.08
2019-05-21T04:36:02.176Z,86.98
2019-05-21T04:38:32.165Z,87.65
2019-05-21T04:41:02.194Z,87.46
2019-05-21T04:43:32.187Z,88.49
2019-05-21T04:46:02.229Z,87.44
2019-05-21T04:48:32.272Z,88.35
2019-05-21T04:51:02.298Z,88.25
2019-05-21T04:53:32.354Z,88.45
2019-05-21T04:56:02.419Z,88.15
2019-05-21T04:58:32.433Z,87.37
2019-05-21T05:01:02.508Z,88.19
2019-05-21T05:03:32.523Z,87.37
2019-05-21T05:06:02.589Z,87.50
2019-05-21T05:08:32.600Z,87.90
2019-05-21T05:11:02.842Z,86.23
2019-05-21T05:13:32.960Z,86.15
2019-05-21T05:16:04.339Z,87.39
2019-05-21T05:18:35.665Z,87.77
2019-05-21T05:21:05.788Z,84.54
2019-05-21T05:23:35.874Z,85.86
2019-05-21T05:26:05.883Z,85.45
2019-05-21T05:28:35.950Z,85.96
2019-05-21T05:31:06.056Z,85.12
2019-05-21T05:33:36.084Z,84.20
2019-05-21T05:36:06.078Z,85.50
2019-05-21T05:38:36.124Z,85.05
2019-05-21T05:41:06.300Z,84.71
2019-05-21T05:43:36.322Z,82.35
2019-05-21T05:46:06.519Z,84.39
2019-05-21T05:48:38.184Z,84.85
2019-05-21T05:51:08.785Z,84.70
2019-05-21T05:53:56.393Z,85.20
2019-05-21T05:56:27.968Z,83.74
2019-05-21T05:58:58.045Z,83.15
2019-05-21T06:01:29.789Z,69.12
2019-05-21T06:03:59.802Z,65.64
2019-05-21T06:06:29.829Z,64.99
2019-05-21T06:08:59.896Z,65.22
2019-05-21T06:11:29.960Z,68.53
2019-05-21T06:13:59.985Z,65.10
2019-05-21T06:16:30.088Z,64.31
2019-05-21T06:19:00.081Z,63.96
2019-05-21T06:21:30.128Z,65.42
2019-05-21T06:24:00.124Z,64.05
2019-05-21T06:26:30.149Z,67.91
2019-05-21T06:29:00.154Z,67.31
2019-05-21T06:31:30.205Z,64.66
2019-05-21T06:34:00.215Z,67.50
2019-05-21T06:36:30.299Z,69.21
2019-05-21T06:39:00.466Z,66.17
2019-05-21T06:41:32.381Z,66.12
2019-05-21T06:44:02.469Z,67.24
2019-05-21T06:46:32.573Z,66.45
2019-05-21T06:49:02.583Z,65.64
2019-05-21T06:51:32.642Z,67.79
2019-05-21T06:54:02.875Z,64.74
2019-05-21T06:56:32.848Z,65.04
2019-05-21T06:59:03.968Z,71.10
2019-05-21T07:01:33.978Z,66.04
2019-05-21T07:04:04.060Z,66.64
2019-05-21T07:06:34.076Z,65.42
2019-05-21T07:09:05.673Z,69.00
2019-05-21T07:11:35.789Z,67.50
2019-05-21T07:14:05.798Z,68.59
2019-05-21T07:16:35.822Z,69.18
2019-05-21T07:19:05.932Z,68.87
2019-05-21T07:21:35.959Z,69.80
2019-05-21T07:24:06.058Z,69.51
2019-05-21T07:26:36.093Z,69.09
2019-05-21T07:29:06.370Z,68.30
2019-05-21T07:31:37.634Z,68.78
2019-05-21T07:34:07.649Z,67.55
2019-05-21T07:36:37.692Z,67.75
2019-05-21T07:39:07.908Z,66.20
2019-05-21T07:41:37.901Z,67.68
2019-05-21T07:44:07.920Z,67.17
2019-05-21T07:46:39.685Z,67.56
2019-05-21T07:49:09.805Z,66.85
2019-05-21T07:51:39.944Z,66.63
2019-05-21T07:54:10.073Z,66.19
2019-05-21T07:56:40.081Z,65.27
2019-05-21T07:59:11.072Z,64.55
2019-05-21T08:01:41.107Z,64.14
2019-05-21T08:04:11.158Z,65.78
2019-05-21T08:06:41.294Z,65.29
2019-05-21T08:09:14.714Z,65.55
2019-05-21T08:11:46.801Z,64.44
2019-05-21T08:14:15.926Z,64.47
2019-05-21T08:16:46.000Z,63.17
2019-05-21T08:19:16.026Z,62.33
2019-05-21T08:21:46.013Z,62.22
2019-05-21T08:24:16.028Z,62.54
2019-05-21T08:26:46.033Z,61.66
2019-05-21T08:29:16.063Z,61.05
2019-05-21T08:31:46.049Z,61.64
2019-05-21T08:34:16.169Z,61.68
2019-05-21T08:36:47.291Z,62.33
2019-05-21T08:39:28.226Z,62.46
2019-05-21T08:41:48.997Z,60.99
2019-05-21T08:44:19.152Z,59.94
2019-05-21T08:46:49.193Z,58.90
2019-05-21T08:49:19.179Z,59.54
2019-05-21T08:51:49.212Z,57.77
2019-05-21T08:54:20.852Z,58.17
2019-05-21T08:56:50.859Z,57.30
2019-05-21T08:59:20.894Z,57.94
2019-05-21T09:01:50.892Z,54.52
2019-05-21T09:04:20.950Z,55.37
2019-05-21T09:06:50.998Z,55.71
2019-05-21T09:09:21.011Z,55.72
2019-05-21T09:11:51.130Z,56.67
2019-05-21T09:14:21.177Z,56.27
2019-05-21T09:16:51.278Z,55.26
2019-05-21T09:19:21.257Z,56.15
2019-05-21T09:21:51.448Z,55.47
2019-05-21T09:24:21.492Z,54.97
2019-05-21T09:26:51.568Z,53.48
2019-05-21T09:29:21.650Z,53.30
2019-05-21T09:31:51.622Z,53.20
2019-05-21T09:34:21.636Z,52.72
2019-05-21T09:36:51.806Z,54.35
2019-05-21T09:39:21.827Z,51.58
2019-05-21T09:41:51.922Z,50.82
2019-05-21T09:44:21.919Z,52.24
2019-05-21T09:46:52.139Z,52.62
2019-05-21T09:49:22.215Z,50.54
2019-05-21T09:51:52.278Z,51.58
2019-05-21T09:54:22.287Z,52.35
2019-05-21T09:56:52.333Z,52.72
2019-05-21T09:59:33.060Z,52.98
2019-05-21T10:02:04.795Z,53.76
2019-05-21T10:04:34.770Z,52.21
2019-05-21T10:07:05.044Z,52.06
2019-05-21T10:09:35.150Z,51.57
2019-05-21T10:12:05.485Z,50.44
2019-05-21T10:14:35.486Z,50.84
2019-05-21T10:17:05.632Z,51.26
2019-05-21T10:19:35.798Z,48.84
2019-05-21T10:22:06.197Z,50.55
2019-05-21T10:24:36.342Z,49.00
2019-05-21T10:27:06.503Z,49.94
2019-05-21T10:29:36.489Z,48.25
2019-05-21T10:32:06.579Z,50.02
2019-05-21T10:34:36.643Z,48.86
2019-05-21T10:37:06.655Z,50.70
2019-05-21T10:39:36.777Z,49.45
2019-05-21T10:42:06.987Z,50.41
2019-05-21T10:44:36.994Z,50.65
2019-05-21T10:47:07.337Z,49.69
2019-05-21T10:49:37.364Z,49.50
2019-05-21T10:52:07.360Z,51.39
2019-05-21T10:54:37.469Z,50.61
2019-05-21T10:57:07.463Z,50.17
2019-05-21T10:59:37.475Z,49.68
2019-05-21T11:02:11.899Z,50.39
2019-05-21T11:04:43.535Z,49.31
2019-05-21T11:07:15.431Z,49.25
2019-05-21T11:09:45.405Z,48.82
2019-05-21T11:12:15.536Z,47.16
2019-05-21T11:14:45.575Z,47.85
2019-05-21T11:17:16.639Z,51.02
2019-05-21T11:19:46.768Z,47.04
2019-05-21T11:22:16.780Z,48.70
2019-05-21T11:24:46.776Z,48.92
2019-05-21T11:27:16.844Z,48.17
2019-05-21T11:29:46.894Z,49.61
2019-05-21T11:32:16.966Z,49.59
2019-05-21T11:34:50.027Z,49.71
2019-05-21T11:37:18.742Z,50.09
2019-05-21T11:39:48.816Z,52.00
2019-05-21T11:42:18.835Z,51.00
2019-05-21T11:44:48.890Z,51.38
2019-05-21T11:47:18.885Z,51.38
2019-05-21T11:49:48.895Z,51.04
2019-05-21T11:52:18.984Z,51.01
2019-05-21T11:54:49.019Z,51.39
2019-05-21T11:57:19.020Z,51.48
2019-05-21T11:59:49.059Z,50.66
2019-05-21T12:02:19.049Z,49.39
2019-05-21T12:04:49.100Z,48.56
2019-05-21T12:07:19.073Z,49.30
2019-05-21T12:09:49.342Z,49.11
2019-05-21T12:12:19.614Z,49.37
2019-05-21T12:14:49.671Z,48.66
2019-05-21T12:17:19.805Z,49.39
2019-05-21T12:19:49.808Z,49.16
2019-05-21T12:22:19.964Z,49.21
2019-05-21T12:24:50.015Z,50.25
2019-05-21T12:27:19.994Z,49.60
2019-05-21T12:29:50.059Z,50.37
2019-05-21T12:32:21.306Z,49.00
2019-05-21T12:34:51.433Z,48.69
2019-05-21T12:37:21.412Z,49.85
2019-05-21T12:39:51.556Z,48.93
2019-05-21T12:42:21.564Z,49.43
2019-05-21T12:44:51.579Z,47.51
2019-05-21T12:47:21.554Z,47.70
2019-05-21T12:49:51.837Z,48.22
2019-05-21T12:52:21.826Z,47.75
2019-05-21T12:54:52.030Z,48.55
2019-05-21T12:57:22.127Z,48.55
2019-05-21T12:59:52.419Z,47.24
2019-05-21T13:02:22.486Z,47.77
2019-05-21T13:04:52.479Z,47.05
2019-05-21T13:07:22.589Z,46.40
2019-05-21T13:09:52.784Z,47.65
2019-05-21T13:12:22.777Z,47.57
2019-05-21T13:14:52.830Z,48.73
2019-05-21T13:17:22.801Z,45.60
2019-05-21T13:19:53.208Z,48.01
2019-05-21T13:22:23.198Z,47.39
2019-05-21T13:24:53.376Z,46.87
2019-05-21T13:27:23.361Z,49.06
2019-05-21T13:29:53.445Z,48.89
2019-05-21T13:32:23.433Z,48.83
2019-05-21T13:34:53.487Z,48.82
2019-05-21T13:37:23.548Z,47.97
2019-05-21T14:00:35.169Z,61.22
2019-05-21T14:03:06.783Z,61.78
2019-05-21T14:05:38.499Z,62.98
2019-05-21T14:08:08.518Z,62.52
2019-05-21T14:10:39.049Z,62.99
2019-05-21T14:13:09.422Z,62.36
2019-05-21T14:15:39.485Z,61.64
2019-05-21T14:18:09.833Z,63.40
2019-05-21T14:20:39.813Z,63.86
2019-05-21T14:23:09.866Z,64.39
2019-05-21T14:25:39.934Z,65.88
2019-05-21T14:28:10.078Z,65.46
2019-05-21T14:30:40.181Z,64.48
2019-05-21T14:33:10.240Z,63.67
2019-05-21T14:35:40.741Z,62.35
2019-05-21T14:38:10.754Z,62.32
2019-05-21T14:40:40.829Z,62.34
2019-05-21T14:43:11.002Z,60.18
2019-05-21T14:45:41.112Z,60.12
2019-05-21T14:48:11.112Z,58.68
2019-05-21T14:50:41.165Z,59.29
2019-05-21T14:53:11.318Z,58.09
2019-05-21T14:55:41.395Z,58.64
2019-05-21T14:58:11.373Z,57.11
2019-05-21T15:00:41.631Z,55.36
2019-05-21T15:03:24.231Z,55.39
2019-05-21T15:05:43.448Z,54.25
2019-05-21T15:08:13.451Z,54.43
2019-05-21T15:10:49.291Z,53.43
2019-05-21T15:13:16.411Z,54.00
2019-05-21T15:15:46.477Z,53.43
2019-05-21T15:18:21.337Z,51.44
2019-05-21T15:20:52.687Z,50.96
2019-05-21T15:23:22.671Z,52.37
2019-05-21T15:25:52.650Z,51.95
2019-05-21T15:28:22.638Z,50.77
2019-05-21T15:30:52.861Z,50.98
2019-05-21T15:33:22.990Z,49.68
2019-05-21T15:35:52.970Z,50.51
2019-05-21T15:38:23.045Z,48.88
2019-05-21T15:41:08.905Z,48.39
2019-05-21T15:43:24.768Z,46.68
2019-05-21T15:45:54.820Z,47.40
2019-05-21T15:48:26.609Z,48.71
2019-05-21T15:50:56.567Z,47.07
2019-05-21T15:53:26.552Z,49.70
2019-05-21T15:55:56.556Z,50.12
2019-05-21T15:58:27.075Z,50.55
2019-05-21T16:00:57.224Z,51.52
2019-05-21T16:03:27.305Z,52.40
2019-05-21T16:05:57.423Z,51.54
2019-05-21T16:08:28.606Z,51.87
2019-05-21T16:10:58.603Z,51.34
2019-05-21T16:13:28.686Z,51.20
2019-05-21T16:15:58.705Z,50.02
2019-05-21T16:18:28.739Z,50.03
2019-05-21T16:20:58.717Z,51.04
2019-05-21T16:23:28.800Z,50.65
2019-05-21T16:25:58.869Z,52.97
2019-05-21T16:28:28.893Z,51.83
2019-05-21T16:30:58.889Z,52.02
2019-05-21T16:33:28.951Z,52.42
2019-05-21T16:35:58.977Z,52.95
2019-05-21T16:38:29.354Z,53.05
2019-05-21T16:40:59.430Z,53.04
2019-05-21T16:43:29.448Z,52.51
2019-05-21T16:45:59.430Z,54.15
2019-05-21T16:48:29.476Z,55.04
2019-05-21T16:50:59.470Z,54.45
2019-05-21T16:53:29.477Z,55.36
2019-05-21T16:55:59.517Z,54.40
2019-05-21T16:58:29.623Z,55.13
2019-05-21T17:00:59.831Z,55.28
2019-05-21T17:03:29.811Z,55.45
2019-05-21T17:05:59.880Z,55.48
2019-05-21T17:08:30.024Z,55.28
2019-05-21T17:11:00.008Z,55.60
2019-05-21T17:13:30.048Z,56.03
2019-05-21T17:16:00.000Z,56.67
2019-05-21T17:18:29.993Z,56.09
2019-05-21T17:20:59.986Z,55.81
2019-05-21T17:23:29.988Z,56.49
2019-05-21T17:25:59.970Z,56.27
2019-05-21T17:28:29.994Z,56.98
2019-05-21T17:31:00.079Z,57.49
2019-05-21T17:33:30.179Z,57.91
2019-05-21T17:36:00.253Z,58.31
2019-05-21T17:38:30.410Z,57.44
2019-05-21T17:43:29.261Z,58.11
2019-05-21T17:45:59.391Z,57.82
2019-05-21T17:48:29.532Z,58.41
2019-05-21T17:50:59.647Z,58.30
2019-05-21T17:53:29.644Z,57.87
2019-05-21T17:55:59.671Z,57.70
2019-05-21T17:58:31.624Z,58.19
2019-05-21T18:01:03.472Z,59.02
2019-05-21T18:03:33.516Z,58.31
2019-05-21T18:06:05.024Z,58.56
2019-05-21T18:08:35.259Z,58.58
2019-05-21T18:11:05.683Z,59.32
2019-05-21T18:13:37.086Z,58.83
2019-05-21T18:16:09.043Z,58.92
2019-05-21T18:18:39.167Z,60.26
2019-05-21T18:21:09.441Z,59.00
2019-05-21T18:23:39.551Z,58.52
2019-05-21T18:26:10.324Z,58.99
2019-05-21T18:28:40.777Z,58.82
2019-05-21T18:31:11.024Z,58.81
2019-05-21T18:33:41.139Z,59.36
2019-05-21T18:36:11.148Z,59.46
2019-05-21T18:38:42.257Z,59.70
2019-05-21T18:41:12.692Z,60.10
2019-05-21T18:43:42.785Z,59.89
2019-05-21T18:46:12.906Z,60.28
2019-05-21T18:48:42.984Z,60.73
2019-05-21T18:51:13.013Z,60.99
2019-05-21T18:53:43.043Z,60.91
2019-05-21T18:56:13.041Z,61.41
2019-05-21T18:58:43.494Z,61.69
2019-05-21T19:01:13.898Z,62.43
2019-05-21T19:03:43.986Z,62.07
2019-05-21T19:06:14.065Z,61.90
2019-05-21T19:08:51.541Z,62.44
2019-05-21T19:11:22.759Z,62.16
2019-05-21T19:13:52.892Z,62.13
2019-05-21T19:16:22.893Z,62.18
2019-05-21T19:18:52.878Z,62.01
2019-05-21T19:21:23.048Z,61.94
2019-05-21T19:23:53.106Z,62.09
2019-05-21T19:26:23.365Z,62.34
2019-05-21T19:28:53.347Z,61.92
2019-05-21T19:31:23.361Z,62.14
2019-05-21T19:33:53.610Z,61.83
2019-05-21T19:36:23.581Z,62.36
2019-05-21T19:38:53.677Z,61.69
2019-05-21T19:41:23.691Z,62.38
2019-05-21T19:43:53.841Z,61.88
2019-05-21T19:46:23.934Z,62.91
2019-05-21T19:48:53.927Z,62.27
2019-05-21T19:51:23.929Z,62.62
2019-05-21T19:53:54.389Z,62.75
2019-05-21T19:56:24.645Z,62.61
2019-05-21T19:58:54.723Z,63.44
2019-05-21T20:01:25.097Z,63.50
2019-05-21T20:03:55.373Z,63.44
2019-05-21T20:06:25.417Z,63.77
2019-05-21T20:08:55.438Z,64.11
2019-05-21T20:11:25.783Z,63.51
2019-05-21T20:13:55.878Z,64.22
2019-05-21T20:16:27.396Z,64.50
2019-05-21T20:18:57.396Z,64.86
2019-05-21T20:21:27.829Z,65.92
2019-05-21T20:23:58.034Z,65.58
2019-05-21T20:26:30.206Z,65.34
2019-05-21T20:29:00.675Z,65.68
2019-05-21T20:31:30.804Z,65.82
2019-05-21T20:34:02.243Z,66.52
2019-05-21T20:36:32.296Z,66.97
2019-05-21T20:39:02.484Z,66.59
2019-05-21T20:41:34.235Z,66.71
2019-05-21T20:44:04.480Z,66.67
2019-05-21T20:46:34.774Z,66.49
2019-05-21T20:49:06.006Z,66.67
2019-05-21T20:51:37.519Z,67.45
2019-05-21T20:54:08.224Z,68.71
2019-05-21T20:56:40.113Z,69.17
2019-05-21T20:59:10.365Z,69.28
2019-05-21T21:01:41.281Z,68.32
2019-05-21T21:04:11.790Z,67.85
2019-05-21T21:06:42.673Z,67.39
2019-05-21T21:09:13.639Z,67.49
2019-05-21T21:11:43.886Z,67.66
2019-05-21T21:14:18.260Z,68.76
2019-05-21T21:16:48.345Z,67.58
2019-05-21T21:19:18.511Z,67.33
2019-05-21T21:21:48.879Z,67.09
2019-05-21T21:24:19.161Z,67.73
2019-05-21T21:26:49.271Z,67.99
2019-05-21T21:29:19.310Z,68.30
2019-05-21T21:31:49.368Z,68.74
2019-05-21T21:34:19.702Z,68.25
2019-05-21T21:36:53.174Z,67.97
2019-05-21T21:39:21.506Z,67.81
2019-05-21T21:41:52.228Z,68.45
2019-05-21T21:44:33.416Z,69.33
2019-05-21T21:46:54.507Z,68.76
2019-05-21T21:49:25.478Z,68.95
2019-05-21T21:51:56.675Z,68.89
2019-05-21T21:54:26.697Z,68.20
2019-05-21T21:56:56.782Z,69.37
2019-05-21T21:59:26.967Z,68.87
2019-05-21T22:02:00.004Z,69.71
2019-05-21T22:04:34.219Z,69.26
2019-05-21T22:07:05.404Z,69.66
2019-05-21T22:09:35.892Z,68.88
2019-05-21T22:12:06.496Z,69.17
2019-05-21T22:14:49.784Z,69.74
2019-05-21T22:17:10.321Z,69.37
2019-05-21T22:19:40.920Z,69.51
2019-05-21T22:22:11.778Z,69.37
2019-05-21T22:24:41.852Z,68.86
2019-05-21T22:27:11.920Z,70.00
2019-05-21T22:29:41.981Z,69.55
2019-05-21T22:32:16.563Z,69.21
2019-05-21T22:34:44.826Z,69.22
2019-05-21T22:37:16.586Z,69.71
2019-05-21T22:39:48.112Z,69.35
2019-05-21T22:42:19.386Z,69.80
2019-05-21T22:44:49.455Z,69.61
2019-05-21T22:47:20.728Z,70.23
2019-05-21T22:49:50.860Z,70.44
2019-05-21T22:52:20.893Z,71.16
2019-05-21T22:54:50.897Z,69.76
2019-05-21T22:57:21.239Z,70.19
2019-05-21T22:59:51.390Z,69.82
2019-05-21T23:02:23.022Z,70.26
2019-05-21T23:04:53.363Z,70.48
2019-05-21T23:07:23.561Z,70.21
2019-05-21T23:09:54.697Z,70.99
2019-05-21T23:12:24.841Z,71.62
2019-05-21T23:14:55.188Z,71.49
2019-05-21T23:17:28.383Z,71.07
2019-05-21T23:20:04.542Z,71.49
2019-05-21T23:22:36.208Z,72.14
2019-05-21T23:25:07.920Z,71.88
2019-05-21T23:27:38.855Z,72.02
2019-05-21T23:30:11.477Z,72.44
2019-05-21T23:32:42.155Z,72.05
2019-05-21T23:35:12.604Z,72.29
2019-05-21T23:37:44.763Z,72.59
2019-05-21T23:40:17.172Z,73.77
2019-05-21T23:42:47.486Z,72.14
2019-05-21T23:45:18.259Z,72.80
2019-05-21T23:47:49.063Z,72.79
2019-05-21T23:50:20.690Z,73.67
2019-05-21T23:52:52.667Z,72.73
2019-05-21T23:55:23.899Z,73.78
2019-05-21T23:57:53.992Z,73.15
